sensor_id;sensor_type;location;lat;lon;timestamp;pressure;altitude;pressure_sealevel;temperature;humidity
39275;BME280;24980;48.874;2.332;2022-08-03T00:02:13;101124.55;;;30.60;39.67
39275;BME280;24980;48.874;2.332;2022-08-03T00:04:43;101124.09;;;30.58;39.68
39275;BME280;24980;48.874;2.332;2022-08-03T00:07:13;101128.88;;;30.58;39.68
39275;BME280;24980;48.874;2.332;2022-08-03T00:09:44;101129.91;;;30.58;39.70
39275;BME280;24980;48.874;2.332;2022-08-03T00:12:14;101127.89;;;30.57;39.70
39275;BME280;24980;48.874;2.332;2022-08-03T00:14:44;101130.18;;;30.56;39.71
39275;BME280;24980;48.874;2.332;2022-08-03T00:17:15;101130.22;;;30.55;39.72
39275;BME280;24980;48.874;2.332;2022-08-03T00:19:44;101132.09;;;30.55;39.75
39275;BME280;24980;48.874;2.332;2022-08-03T00:22:14;101135.63;;;30.54;39.77
39275;BME280;24980;48.874;2.332;2022-08-03T00:24:47;101136.77;;;30.54;39.80
39275;BME280;24980;48.874;2.332;2022-08-03T00:27:15;101137.70;;;30.54;39.83
39275;BME280;24980;48.874;2.332;2022-08-03T00:29:45;101135.22;;;30.52;39.87
39275;BME280;24980;48.874;2.332;2022-08-03T00:32:15;101133.72;;;30.51;39.89
39275;BME280;24980;48.874;2.332;2022-08-03T00:34:45;101133.23;;;30.50;39.91
39275;BME280;24980;48.874;2.332;2022-08-03T00:37:15;101134.01;;;30.49;39.95
39275;BME280;24980;48.874;2.332;2022-08-03T00:39:45;101131.72;;;30.47;39.97
39275;BME280;24980;48.874;2.332;2022-08-03T00:42:15;101131.73;;;30.46;39.97
39275;BME280;24980;48.874;2.332;2022-08-03T00:44:46;101128.61;;;30.45;39.98
39275;BME280;24980;48.874;2.332;2022-08-03T00:47:16;101129.21;;;30.44;39.98
39275;BME280;24980;48.874;2.332;2022-08-03T00:49:52;101127.06;;;30.42;39.96
39275;BME280;24980;48.874;2.332;2022-08-03T00:52:17;101128.34;;;30.40;39.95
39275;BME280;24980;48.874;2.332;2022-08-03T00:54:47;101126.14;;;30.39;39.96
39275;BME280;24980;48.874;2.332;2022-08-03T00:57:18;101127.42;;;30.37;39.96
39275;BME280;24980;48.874;2.332;2022-08-03T00:59:48;101120.61;;;30.36;39.97
39275;BME280;24980;48.874;2.332;2022-08-03T01:02:21;101120.98;;;30.35;39.98
39275;BME280;24980;48.874;2.332;2022-08-03T01:04:49;101121.61;;;30.34;39.99
39275;BME280;24980;48.874;2.332;2022-08-03T01:07:32;101117.17;;;30.32;40.00
39275;BME280;24980;48.874;2.332;2022-08-03T01:12:32;101113.67;;;30.31;40.01
39275;BME280;24980;48.874;2.332;2022-08-03T01:15:11;101111.61;;;30.31;40.02
39275;BME280;24980;48.874;2.332;2022-08-03T01:17:30;101105.68;;;30.29;40.02
39275;BME280;24980;48.874;2.332;2022-08-03T01:19:59;101102.47;;;30.28;40.03
39275;BME280;24980;48.874;2.332;2022-08-03T01:22:36;101101.80;;;30.28;40.05
39275;BME280;24980;48.874;2.332;2022-08-03T01:25:09;101103.30;;;30.28;40.08
39275;BME280;24980;48.874;2.332;2022-08-03T01:27:30;101099.97;;;30.27;40.09
39275;BME280;24980;48.874;2.332;2022-08-03T01:30:06;101102.15;;;30.26;40.10
39275;BME280;24980;48.874;2.332;2022-08-03T01:32:47;101100.21;;;30.25;40.09
39275;BME280;24980;48.874;2.332;2022-08-03T01:35:02;101093.65;;;30.25;40.10
39275;BME280;24980;48.874;2.332;2022-08-03T01:37:30;101092.69;;;30.24;40.10
39275;BME280;24980;48.874;2.332;2022-08-03T01:39:57;101090.92;;;30.23;40.10
39275;BME280;24980;48.874;2.332;2022-08-03T01:44:59;101087.47;;;30.20;40.06
39275;BME280;24980;48.874;2.332;2022-08-03T01:47:29;101084.86;;;30.19;40.06
39275;BME280;24980;48.874;2.332;2022-08-03T01:49:56;101080.16;;;30.18;40.06
39275;BME280;24980;48.874;2.332;2022-08-03T01:52:33;101084.07;;;30.18;40.06
39275;BME280;24980;48.874;2.332;2022-08-03T01:54:59;101079.14;;;30.17;40.07
39275;BME280;24980;48.874;2.332;2022-08-03T01:57:34;101084.79;;;30.17;40.07
39275;BME280;24980;48.874;2.332;2022-08-03T01:59:59;101087.05;;;30.16;40.08
39275;BME280;24980;48.874;2.332;2022-08-03T02:02:30;101084.84;;;30.15;40.08
39275;BME280;24980;48.874;2.332;2022-08-03T02:05:00;101082.69;;;30.14;40.09
39275;BME280;24980;48.874;2.332;2022-08-03T02:07:32;101084.83;;;30.14;40.09
39275;BME280;24980;48.874;2.332;2022-08-03T02:10:07;101083.06;;;30.13;40.10
39275;BME280;24980;48.874;2.332;2022-08-03T02:15:02;101074.25;;;30.12;40.11
39275;BME280;24980;48.874;2.332;2022-08-03T02:17:36;101072.91;;;30.11;40.11
39275;BME280;24980;48.874;2.332;2022-08-03T02:20:05;101066.09;;;30.10;40.13
39275;BME280;24980;48.874;2.332;2022-08-03T02:22:34;101067.66;;;30.10;40.13
39275;BME280;24980;48.874;2.332;2022-08-03T02:25:03;101065.55;;;30.07;40.14
39275;BME280;24980;48.874;2.332;2022-08-03T02:27:37;101063.51;;;30.05;40.14
39275;BME280;24980;48.874;2.332;2022-08-03T02:30:07;101061.97;;;30.05;40.14
39275;BME280;24980;48.874;2.332;2022-08-03T02:32:39;101062.50;;;30.05;40.12
39275;BME280;24980;48.874;2.332;2022-08-03T02:35:10;101061.39;;;30.04;40.14
39275;BME280;24980;48.874;2.332;2022-08-03T02:37:40;101060.64;;;30.04;40.15
39275;BME280;24980;48.874;2.332;2022-08-03T02:40:08;101062.45;;;30.03;40.15
39275;BME280;24980;48.874;2.332;2022-08-03T02:42:37;101062.91;;;30.03;40.17
39275;BME280;24980;48.874;2.332;2022-08-03T02:45:09;101063.50;;;30.03;40.18
39275;BME280;24980;48.874;2.332;2022-08-03T02:47:39;101068.55;;;30.03;40.19
39275;BME280;24980;48.874;2.332;2022-08-03T02:50:11;101062.88;;;30.02;40.20
39275;BME280;24980;48.874;2.332;2022-08-03T02:52:40;101059.55;;;30.02;40.20
39275;BME280;24980;48.874;2.332;2022-08-03T02:55:11;101062.30;;;30.02;40.21
39275;BME280;24980;48.874;2.332;2022-08-03T02:57:42;101058.80;;;30.01;40.21
39275;BME280;24980;48.874;2.332;2022-08-03T03:00:12;101056.25;;;30.01;40.22
39275;BME280;24980;48.874;2.332;2022-08-03T03:02:43;101052.59;;;30.00;40.23
39275;BME280;24980;48.874;2.332;2022-08-03T03:05:13;101048.75;;;29.99;40.23
39275;BME280;24980;48.874;2.332;2022-08-03T03:07:44;101046.81;;;29.98;40.24
39275;BME280;24980;48.874;2.332;2022-08-03T03:10:14;101050.23;;;29.98;40.26
39275;BME280;24980;48.874;2.332;2022-08-03T03:12:45;101044.88;;;29.97;40.25
39275;BME280;24980;48.874;2.332;2022-08-03T03:15:17;101044.03;;;29.97;40.27
39275;BME280;24980;48.874;2.332;2022-08-03T03:17:47;101041.83;;;29.96;40.27
39275;BME280;24980;48.874;2.332;2022-08-03T03:20:18;101042.73;;;29.96;40.26
39275;BME280;24980;48.874;2.332;2022-08-03T03:22:55;101042.39;;;29.96;40.28
39275;BME280;24980;48.874;2.332;2022-08-03T03:25:18;101045.08;;;29.94;40.29
39275;BME280;24980;48.874;2.332;2022-08-03T03:27:49;101043.39;;;29.94;40.29
39275;BME280;24980;48.874;2.332;2022-08-03T03:30:22;101041.17;;;29.94;40.30
39275;BME280;24980;48.874;2.332;2022-08-03T03:32:49;101045.20;;;29.94;40.30
39275;BME280;24980;48.874;2.332;2022-08-03T03:35:20;101042.96;;;29.92;40.31
39275;BME280;24980;48.874;2.332;2022-08-03T03:37:53;101045.11;;;29.92;40.32
39275;BME280;24980;48.874;2.332;2022-08-03T03:40:21;101040.95;;;29.91;40.32
39275;BME280;24980;48.874;2.332;2022-08-03T03:42:51;101039.42;;;29.91;40.33
39275;BME280;24980;48.874;2.332;2022-08-03T03:45:23;101034.23;;;29.90;40.33
39275;BME280;24980;48.874;2.332;2022-08-03T03:47:52;101039.80;;;29.90;40.34
39275;BME280;24980;48.874;2.332;2022-08-03T03:50:22;101035.03;;;29.89;40.35
39275;BME280;24980;48.874;2.332;2022-08-03T03:52:52;101034.56;;;29.89;40.36
39275;BME280;24980;48.874;2.332;2022-08-03T03:55:22;101035.02;;;29.88;40.36
39275;BME280;24980;48.874;2.332;2022-08-03T03:57:53;101035.70;;;29.88;40.37
39275;BME280;24980;48.874;2.332;2022-08-03T04:00:23;101034.12;;;29.87;40.38
39275;BME280;24980;48.874;2.332;2022-08-03T04:02:53;101036.34;;;29.87;40.39
39275;BME280;24980;48.874;2.332;2022-08-03T04:05:29;101039.31;;;29.86;40.41
39275;BME280;24980;48.874;2.332;2022-08-03T04:08:08;101038.12;;;29.86;40.42
39275;BME280;24980;48.874;2.332;2022-08-03T04:10:28;101036.27;;;29.85;40.42
39275;BME280;24980;48.874;2.332;2022-08-03T04:12:59;101041.34;;;29.84;40.43
39275;BME280;24980;48.874;2.332;2022-08-03T04:15:27;101039.88;;;29.84;40.44
39275;BME280;24980;48.874;2.332;2022-08-03T04:17:58;101037.84;;;29.84;40.45
39275;BME280;24980;48.874;2.332;2022-08-03T04:20:30;101045.98;;;29.83;40.46
39275;BME280;24980;48.874;2.332;2022-08-03T04:22:59;101039.45;;;29.83;40.47
39275;BME280;24980;48.874;2.332;2022-08-03T04:25:30;101039.53;;;29.82;40.48
39275;BME280;24980;48.874;2.332;2022-08-03T04:28:01;101041.67;;;29.82;40.49
39275;BME280;24980;48.874;2.332;2022-08-03T04:30:32;101041.10;;;29.81;40.50
39275;BME280;24980;48.874;2.332;2022-08-03T04:32:59;101038.29;;;29.81;40.51
39275;BME280;24980;48.874;2.332;2022-08-03T04:35:32;101038.33;;;29.80;40.52
39275;BME280;24980;48.874;2.332;2022-08-03T04:38:05;101033.77;;;29.79;40.55
39275;BME280;24980;48.874;2.332;2022-08-03T04:40:38;101036.25;;;29.79;40.55
39275;BME280;24980;48.874;2.332;2022-08-03T04:43:02;101038.31;;;29.78;40.56
39275;BME280;24980;48.874;2.332;2022-08-03T04:45:36;101035.77;;;29.78;40.57
39275;BME280;24980;48.874;2.332;2022-08-03T04:48:03;101038.36;;;29.77;40.58
39275;BME280;24980;48.874;2.332;2022-08-03T04:50:37;101039.06;;;29.76;40.59
39275;BME280;24980;48.874;2.332;2022-08-03T04:53:07;101034.84;;;29.76;40.60
39275;BME280;24980;48.874;2.332;2022-08-03T04:55:34;101034.52;;;29.75;40.61
39275;BME280;24980;48.874;2.332;2022-08-03T05:00:35;101038.41;;;29.74;40.63
39275;BME280;24980;48.874;2.332;2022-08-03T05:03:05;101042.10;;;29.73;40.65
39275;BME280;24980;48.874;2.332;2022-08-03T05:05:35;101041.20;;;29.73;40.66
39275;BME280;24980;48.874;2.332;2022-08-03T05:08:05;101044.63;;;29.73;40.66
39275;BME280;24980;48.874;2.332;2022-08-03T05:10:35;101043.28;;;29.72;40.67
39275;BME280;24980;48.874;2.332;2022-08-03T05:13:05;101042.44;;;29.72;40.68
39275;BME280;24980;48.874;2.332;2022-08-03T05:15:35;101044.00;;;29.71;40.69
39275;BME280;24980;48.874;2.332;2022-08-03T05:18:05;101041.70;;;29.71;40.70
39275;BME280;24980;48.874;2.332;2022-08-03T05:20:35;101045.02;;;29.70;40.72
39275;BME280;24980;48.874;2.332;2022-08-03T05:23:06;101048.11;;;29.69;40.73
39275;BME280;24980;48.874;2.332;2022-08-03T05:25:36;101048.55;;;29.69;40.74
39275;BME280;24980;48.874;2.332;2022-08-03T05:28:06;101046.78;;;29.68;40.75
39275;BME280;24980;48.874;2.332;2022-08-03T05:30:39;101050.62;;;29.68;40.77
39275;BME280;24980;48.874;2.332;2022-08-03T05:33:06;101050.47;;;29.68;40.78
39275;BME280;24980;48.874;2.332;2022-08-03T05:35:41;101049.22;;;29.67;40.79
39275;BME280;24980;48.874;2.332;2022-08-03T05:38:09;101052.34;;;29.66;40.80
39275;BME280;24980;48.874;2.332;2022-08-03T05:40:40;101053.10;;;29.67;40.82
39275;BME280;24980;48.874;2.332;2022-08-03T05:43:13;101049.39;;;29.65;40.82
39275;BME280;24980;48.874;2.332;2022-08-03T05:45:39;101046.86;;;29.64;40.84
39275;BME280;24980;48.874;2.332;2022-08-03T05:48:09;101052.77;;;29.64;40.85
39275;BME280;24980;48.874;2.332;2022-08-03T05:50:39;101054.42;;;29.64;40.86
39275;BME280;24980;48.874;2.332;2022-08-03T05:53:10;101048.47;;;29.63;40.89
39275;BME280;24980;48.874;2.332;2022-08-03T05:55:40;101047.62;;;29.63;40.90
39275;BME280;24980;48.874;2.332;2022-08-03T05:58:10;101047.56;;;29.62;40.91
39275;BME280;24980;48.874;2.332;2022-08-03T06:00:40;101050.83;;;29.61;40.92
39275;BME280;24980;48.874;2.332;2022-08-03T06:03:10;101051.95;;;29.61;40.94
39275;BME280;24980;48.874;2.332;2022-08-03T06:05:40;101053.62;;;29.60;40.94
39275;BME280;24980;48.874;2.332;2022-08-03T06:08:12;101057.99;;;29.60;40.95
39275;BME280;24980;48.874;2.332;2022-08-03T06:10:40;101057.86;;;29.59;40.95
39275;BME280;24980;48.874;2.332;2022-08-03T06:13:11;101061.38;;;29.58;40.97
39275;BME280;24980;48.874;2.332;2022-08-03T06:15:41;101058.74;;;29.58;40.98
39275;BME280;24980;48.874;2.332;2022-08-03T06:18:12;101056.94;;;29.58;41.00
39275;BME280;24980;48.874;2.332;2022-08-03T06:20:42;101059.34;;;29.58;41.01
39275;BME280;24980;48.874;2.332;2022-08-03T06:23:12;101058.83;;;29.58;41.02
39275;BME280;24980;48.874;2.332;2022-08-03T06:25:42;101056.59;;;29.57;41.04
39275;BME280;24980;48.874;2.332;2022-08-03T06:28:12;101058.48;;;29.57;41.04
39275;BME280;24980;48.874;2.332;2022-08-03T06:30:43;101060.80;;;29.56;41.07
39275;BME280;24980;48.874;2.332;2022-08-03T06:33:16;101059.27;;;29.56;41.09
39275;BME280;24980;48.874;2.332;2022-08-03T06:35:43;101062.37;;;29.55;41.10
39275;BME280;24980;48.874;2.332;2022-08-03T06:38:13;101062.38;;;29.55;41.11
39275;BME280;24980;48.874;2.332;2022-08-03T06:40:46;101064.60;;;29.55;41.12
39275;BME280;24980;48.874;2.332;2022-08-03T06:43:14;101059.05;;;29.53;41.12
39275;BME280;24980;48.874;2.332;2022-08-03T06:45:44;101062.03;;;29.53;41.14
39275;BME280;24980;48.874;2.332;2022-08-03T06:48:14;101062.38;;;29.53;41.15
39275;BME280;24980;48.874;2.332;2022-08-03T06:50:44;101061.03;;;29.52;41.16
39275;BME280;24980;48.874;2.332;2022-08-03T06:53:14;101061.38;;;29.52;41.17
39275;BME280;24980;48.874;2.332;2022-08-03T06:55:44;101061.48;;;29.52;41.17
39275;BME280;24980;48.874;2.332;2022-08-03T06:58:16;101062.09;;;29.51;41.18
39275;BME280;24980;48.874;2.332;2022-08-03T07:00:45;101066.03;;;29.51;41.20
39275;BME280;24980;48.874;2.332;2022-08-03T07:03:15;101065.30;;;29.51;41.22
39275;BME280;24980;48.874;2.332;2022-08-03T07:05:46;101061.73;;;29.50;41.22
39275;BME280;24980;48.874;2.332;2022-08-03T07:08:16;101070.30;;;29.51;41.23
39275;BME280;24980;48.874;2.332;2022-08-03T07:10:47;101063.20;;;29.50;41.23
39275;BME280;24980;48.874;2.332;2022-08-03T07:13:17;101065.77;;;29.49;41.24
39275;BME280;24980;48.874;2.332;2022-08-03T07:15:47;101065.53;;;29.49;41.24
39275;BME280;24980;48.874;2.332;2022-08-03T07:18:17;101064.36;;;29.48;41.25
39275;BME280;24980;48.874;2.332;2022-08-03T07:20:48;101061.26;;;29.47;41.26
39275;BME280;24980;48.874;2.332;2022-08-03T07:23:19;101063.09;;;29.48;41.26
39275;BME280;24980;48.874;2.332;2022-08-03T07:25:51;101061.27;;;29.47;41.27
39275;BME280;24980;48.874;2.332;2022-08-03T07:28:19;101066.66;;;29.47;41.28
39275;BME280;24980;48.874;2.332;2022-08-03T07:30:49;101058.66;;;29.46;41.29
39275;BME280;24980;48.874;2.332;2022-08-03T07:33:19;101060.00;;;29.47;41.29
39275;BME280;24980;48.874;2.332;2022-08-03T07:35:49;101061.30;;;29.46;41.30
39275;BME280;24980;48.874;2.332;2022-08-03T07:38:19;101060.22;;;29.45;41.33
39275;BME280;24980;48.874;2.332;2022-08-03T07:40:49;101061.76;;;29.45;41.32
39275;BME280;24980;48.874;2.332;2022-08-03T07:43:23;101058.61;;;29.45;41.33
39275;BME280;24980;48.874;2.332;2022-08-03T07:45:52;101062.42;;;29.46;41.33
39275;BME280;24980;48.874;2.332;2022-08-03T07:48:21;101064.38;;;29.46;41.34
39275;BME280;24980;48.874;2.332;2022-08-03T07:50:51;101067.38;;;29.46;41.37
39275;BME280;24980;48.874;2.332;2022-08-03T07:53:21;101065.31;;;29.46;41.40
39275;BME280;24980;48.874;2.332;2022-08-03T07:55:51;101062.33;;;29.46;41.42
39275;BME280;24980;48.874;2.332;2022-08-03T07:58:21;101065.20;;;29.47;41.45
39275;BME280;24980;48.874;2.332;2022-08-03T08:00:51;101063.66;;;29.47;41.48
39275;BME280;24980;48.874;2.332;2022-08-03T08:03:21;101062.73;;;29.47;41.51
39275;BME280;24980;48.874;2.332;2022-08-03T08:05:51;101062.33;;;29.48;41.52
39275;BME280;24980;48.874;2.332;2022-08-03T08:08:21;101064.00;;;29.49;41.54
39275;BME280;24980;48.874;2.332;2022-08-03T08:10:54;101065.53;;;29.49;41.56
39275;BME280;24980;48.874;2.332;2022-08-03T08:13:22;101066.50;;;29.51;41.57
39275;BME280;24980;48.874;2.332;2022-08-03T08:15:56;101067.02;;;29.51;41.58
39275;BME280;24980;48.874;2.332;2022-08-03T08:18:22;101062.08;;;29.52;41.57
39275;BME280;24980;48.874;2.332;2022-08-03T08:20:52;101060.80;;;29.52;41.57
39275;BME280;24980;48.874;2.332;2022-08-03T08:23:22;101061.33;;;29.51;41.57
39275;BME280;24980;48.874;2.332;2022-08-03T08:25:52;101062.77;;;29.51;41.57
39275;BME280;24980;48.874;2.332;2022-08-03T08:28:22;101059.62;;;29.51;41.58
39275;BME280;24980;48.874;2.332;2022-08-03T08:30:52;101057.55;;;29.52;41.57
39275;BME280;24980;48.874;2.332;2022-08-03T08:33:22;101052.27;;;29.51;41.58
39275;BME280;24980;48.874;2.332;2022-08-03T08:35:52;101053.11;;;29.52;41.61
39275;BME280;24980;48.874;2.332;2022-08-03T08:38:22;101050.66;;;29.54;41.60
39275;BME280;24980;48.874;2.332;2022-08-03T08:40:54;101047.81;;;29.56;41.56
39275;BME280;24980;48.874;2.332;2022-08-03T08:43:22;101050.27;;;29.57;41.55
39275;BME280;24980;48.874;2.332;2022-08-03T08:45:53;101046.80;;;29.58;41.57
39275;BME280;24980;48.874;2.332;2022-08-03T08:48:24;101048.64;;;29.59;41.59
39275;BME280;24980;48.874;2.332;2022-08-03T08:50:58;101047.34;;;29.61;41.60
39275;BME280;24980;48.874;2.332;2022-08-03T08:53:28;101049.39;;;29.67;41.56
39275;BME280;24980;48.874;2.332;2022-08-03T08:58:25;101048.80;;;29.69;41.55
39275;BME280;24980;48.874;2.332;2022-08-03T09:00:55;101045.11;;;29.71;41.58
39275;BME280;24980;48.874;2.332;2022-08-03T09:03:33;101044.70;;;29.76;41.53
39275;BME280;24980;48.874;2.332;2022-08-03T09:05:56;101043.77;;;29.81;41.49
39275;BME280;24980;48.874;2.332;2022-08-03T09:08:28;101042.25;;;29.80;41.51
39275;BME280;24980;48.874;2.332;2022-08-03T09:10:57;101041.73;;;29.80;41.53
39275;BME280;24980;48.874;2.332;2022-08-03T09:13:27;101036.91;;;29.84;41.52
39275;BME280;24980;48.874;2.332;2022-08-03T09:16:18;101040.83;;;29.90;41.47
39275;BME280;24980;48.874;2.332;2022-08-03T09:18:30;101035.47;;;29.93;41.42
39275;BME280;24980;48.874;2.332;2022-08-03T09:21:12;101036.98;;;29.92;41.43
39275;BME280;24980;48.874;2.332;2022-08-03T09:23:52;101036.52;;;29.91;41.47
39275;BME280;24980;48.874;2.332;2022-08-03T09:25:59;101030.57;;;29.90;41.49
39275;BME280;24980;48.874;2.332;2022-08-03T09:28:35;101027.69;;;29.92;41.48
39275;BME280;24980;48.874;2.332;2022-08-03T09:31:00;101033.27;;;29.93;41.46
39275;BME280;24980;48.874;2.332;2022-08-03T09:33:30;101029.74;;;29.96;41.44
39275;BME280;24980;48.874;2.332;2022-08-03T09:36:01;101031.35;;;29.98;41.43
39275;BME280;24980;48.874;2.332;2022-08-03T09:38:31;101028.88;;;30.01;41.41
39275;BME280;24980;48.874;2.332;2022-08-03T09:41:01;101028.14;;;30.06;41.38
39275;BME280;24980;48.874;2.332;2022-08-03T09:43:44;101028.69;;;30.09;41.35
39275;BME280;24980;48.874;2.332;2022-08-03T09:46:05;101027.38;;;30.16;41.31
39275;BME280;24980;48.874;2.332;2022-08-03T09:48:38;101024.35;;;30.26;41.21
39275;BME280;24980;48.874;2.332;2022-08-03T09:51:06;101021.19;;;30.35;41.13
39275;BME280;24980;48.874;2.332;2022-08-03T09:53:41;101016.50;;;30.41;41.12
39275;BME280;24980;48.874;2.332;2022-08-03T09:56:04;101011.42;;;30.49;41.03
39275;BME280;24980;48.874;2.332;2022-08-03T09:58:45;101012.20;;;30.52;41.02
39275;BME280;24980;48.874;2.332;2022-08-03T10:01:04;101005.36;;;30.58;40.98
39275;BME280;24980;48.874;2.332;2022-08-03T10:03:36;101006.45;;;30.63;40.91
39275;BME280;24980;48.874;2.332;2022-08-03T10:06:22;101005.82;;;30.61;40.92
39275;BME280;24980;48.874;2.332;2022-08-03T10:08:35;101003.91;;;30.60;40.95
39275;BME280;24980;48.874;2.332;2022-08-03T10:11:05;100999.11;;;30.65;40.94
39275;BME280;24980;48.874;2.332;2022-08-03T10:13:39;100995.29;;;30.63;40.97
39275;BME280;24980;48.874;2.332;2022-08-03T10:16:06;100989.18;;;30.58;41.04
39275;BME280;24980;48.874;2.332;2022-08-03T10:18:45;100990.39;;;30.54;41.12
39275;BME280;24980;48.874;2.332;2022-08-03T10:21:15;100988.66;;;30.51;41.17
39275;BME280;24980;48.874;2.332;2022-08-03T10:23:41;100985.73;;;30.50;41.22
39275;BME280;24980;48.874;2.332;2022-08-03T10:26:12;100986.90;;;30.48;41.26
39275;BME280;24980;48.874;2.332;2022-08-03T10:28:41;100985.88;;;30.48;41.28
39275;BME280;24980;48.874;2.332;2022-08-03T10:31:10;100980.80;;;30.49;41.31
39275;BME280;24980;48.874;2.332;2022-08-03T10:33:43;100984.58;;;30.49;41.33
39275;BME280;24980;48.874;2.332;2022-08-03T10:36:12;100980.11;;;30.49;41.36
39275;BME280;24980;48.874;2.332;2022-08-03T10:38:46;100977.11;;;30.49;41.39
39275;BME280;24980;48.874;2.332;2022-08-03T10:41:11;100969.66;;;30.50;41.40
39275;BME280;24980;48.874;2.332;2022-08-03T10:43:46;100968.44;;;30.50;41.40
39275;BME280;24980;48.874;2.332;2022-08-03T10:46:13;100968.06;;;30.52;41.39
39275;BME280;24980;48.874;2.332;2022-08-03T10:48:42;100967.56;;;30.54;41.38
39275;BME280;24980;48.874;2.332;2022-08-03T10:51:13;100963.64;;;30.55;41.38
39275;BME280;24980;48.874;2.332;2022-08-03T10:53:43;100962.41;;;30.56;41.37
39275;BME280;24980;48.874;2.332;2022-08-03T10:56:36;100960.02;;;30.58;41.37
39275;BME280;24980;48.874;2.332;2022-08-03T10:58:47;100959.02;;;30.61;41.35
39275;BME280;24980;48.874;2.332;2022-08-03T11:01:15;100958.00;;;30.63;41.34
39275;BME280;24980;48.874;2.332;2022-08-03T11:06:23;100957.23;;;30.66;41.35
39275;BME280;24980;48.874;2.332;2022-08-03T11:08:50;100956.55;;;30.68;41.34
39275;BME280;24980;48.874;2.332;2022-08-03T11:11:25;100954.55;;;30.70;41.33
39275;BME280;24980;48.874;2.332;2022-08-03T11:14:11;100952.67;;;30.72;41.32
39275;BME280;24980;48.874;2.332;2022-08-03T11:16:19;100950.05;;;30.75;41.31
39275;BME280;24980;48.874;2.332;2022-08-03T11:18:58;100946.69;;;30.77;41.31
39275;BME280;24980;48.874;2.332;2022-08-03T11:21:18;100940.35;;;30.79;41.31
39275;BME280;24980;48.874;2.332;2022-08-03T11:23:48;100937.84;;;30.81;41.29
39275;BME280;24980;48.874;2.332;2022-08-03T11:26:19;100936.25;;;30.84;41.27
39275;BME280;24980;48.874;2.332;2022-08-03T11:28:50;100937.58;;;30.86;41.25
39275;BME280;24980;48.874;2.332;2022-08-03T11:34:04;100928.58;;;30.90;41.21
39275;BME280;24980;48.874;2.332;2022-08-03T11:36:24;100925.25;;;30.92;41.16
39275;BME280;24980;48.874;2.332;2022-08-03T11:39:16;100924.41;;;30.93;41.14
39275;BME280;24980;48.874;2.332;2022-08-03T11:41:34;100916.38;;;30.94;41.12
39275;BME280;24980;48.874;2.332;2022-08-03T11:43:53;100918.19;;;30.96;41.12
39275;BME280;24980;48.874;2.332;2022-08-03T11:46:23;100913.33;;;30.98;41.10
39275;BME280;24980;48.874;2.332;2022-08-03T11:49:02;100911.94;;;31.00;41.08
39275;BME280;24980;48.874;2.332;2022-08-03T11:51:29;100913.45;;;31.02;41.06
39275;BME280;24980;48.874;2.332;2022-08-03T11:54:01;100910.35;;;31.04;41.03
39275;BME280;24980;48.874;2.332;2022-08-03T11:56:46;100910.84;;;31.06;41.00
39275;BME280;24980;48.874;2.332;2022-08-03T11:58:56;100912.75;;;31.08;40.98
39275;BME280;24980;48.874;2.332;2022-08-03T12:01:25;100911.03;;;31.09;40.96
39275;BME280;24980;48.874;2.332;2022-08-03T12:04:03;100916.55;;;31.10;40.95
39275;BME280;24980;48.874;2.332;2022-08-03T12:06:26;100913.69;;;31.11;40.94
39275;BME280;24980;48.874;2.332;2022-08-03T12:09:00;100912.55;;;31.13;40.91
39275;BME280;24980;48.874;2.332;2022-08-03T12:11:26;100911.31;;;31.15;40.87
39275;BME280;24980;48.874;2.332;2022-08-03T12:13:56;100910.91;;;31.18;40.84
39275;BME280;24980;48.874;2.332;2022-08-03T12:16:27;100910.26;;;31.19;40.83
39275;BME280;24980;48.874;2.332;2022-08-03T12:19:02;100902.06;;;31.21;40.81
39275;BME280;24980;48.874;2.332;2022-08-03T12:21:27;100902.47;;;31.23;40.79
39275;BME280;24980;48.874;2.332;2022-08-03T12:24:04;100900.86;;;31.24;40.78
39275;BME280;24980;48.874;2.332;2022-08-03T12:26:29;100896.33;;;31.25;40.75
39275;BME280;24980;48.874;2.332;2022-08-03T12:28:58;100894.92;;;31.27;40.73
39275;BME280;24980;48.874;2.332;2022-08-03T12:31:28;100895.69;;;31.29;40.70
39275;BME280;24980;48.874;2.332;2022-08-03T12:34:03;100896.19;;;31.31;40.68
39275;BME280;24980;48.874;2.332;2022-08-03T12:36:30;100897.47;;;31.33;40.66
39275;BME280;24980;48.874;2.332;2022-08-03T12:39:05;100892.29;;;31.35;40.63
39275;BME280;24980;48.874;2.332;2022-08-03T12:41:32;100893.98;;;31.37;40.60
39275;BME280;24980;48.874;2.332;2022-08-03T12:44:06;100897.25;;;31.39;40.58
39275;BME280;24980;48.874;2.332;2022-08-03T12:46:34;100895.14;;;31.41;40.55
39275;BME280;24980;48.874;2.332;2022-08-03T12:49:11;100895.96;;;31.44;40.53
39275;BME280;24980;48.874;2.332;2022-08-03T12:54:05;100884.99;;;31.49;40.46
39275;BME280;24980;48.874;2.332;2022-08-03T12:59:24;100879.81;;;31.52;40.42
39275;BME280;24980;48.874;2.332;2022-08-03T13:01:36;100880.99;;;31.53;40.41
39275;BME280;24980;48.874;2.332;2022-08-03T13:04:06;100874.12;;;31.56;40.40
39275;BME280;24980;48.874;2.332;2022-08-03T13:06:37;100871.21;;;31.57;40.41
39275;BME280;24980;48.874;2.332;2022-08-03T13:09:07;100873.10;;;31.59;40.40
39275;BME280;24980;48.874;2.332;2022-08-03T13:11:37;100873.69;;;31.60;40.38
39275;BME280;24980;48.874;2.332;2022-08-03T13:14:07;100870.46;;;31.63;40.36
39275;BME280;24980;48.874;2.332;2022-08-03T13:16:37;100869.83;;;31.64;40.32
39275;BME280;24980;48.874;2.332;2022-08-03T13:19:07;100866.75;;;31.65;40.29
39275;BME280;24980;48.874;2.332;2022-08-03T13:21:37;100861.44;;;31.67;40.26
39275;BME280;24980;48.874;2.332;2022-08-03T13:24:07;100857.97;;;31.68;40.23
39275;BME280;24980;48.874;2.332;2022-08-03T13:26:37;100856.18;;;31.69;40.20
39275;BME280;24980;48.874;2.332;2022-08-03T13:29:07;100850.65;;;31.71;40.17